• Join FlightAware (Why Join?)
  • Login
  • US Flag 
08:56PM EDT


 

Airport Tracker/Info


-or-


 

Live Flight TrackerFlight Track Log ✈ DAL1712 ✈ 06-May-2012 ✈ KTPA - KMSP

Flight Track Log - Related Links

Times and Time Zones

All times are in EDT time to prevent confusion due to time zone crossing. See the DAL1712 flight status page for this flight to view local times or setup timezone preferences in your user account.

Time Position Orientation Groundspeed Altitude Reporting Facility
EDT Latitude Longitude Course Direction KTS MPH feet Rate Location/Type
06:06PM 27.9500 -82.5500 180° South 203 234 700  Level Tampa TRACON
06:07PM 27.9333 -82.5500 214° Southwest 216 249 1,600 2,100 Climbing Tampa TRACON
06:08PM 27.8667 -82.6000 310° West 276 318 3,900 2,520 Climbing Tampa TRACON
06:09PM 27.9167 -82.6667 348° North 302 348 6,700 2,040 Climbing Tampa TRACON
06:12PM 28.2083 -82.7347 348° North 377 434 12,700 1,860 Climbing Jacksonville Center
06:13PM 28.3167 -82.7606 347° North 396 456 14,600 1,860 Climbing Jacksonville Center
06:14PM 28.4317 -82.7911 352° North 401 461 16,500 1,800 Climbing Jacksonville Center
06:15PM 28.5506 -82.8100 335° Northwest 414 476 18,200 1,680 Climbing Jacksonville Center
06:16PM 28.6592 -82.8689 328° Northwest 419 482 19,900 1,380 Climbing Jacksonville Center
06:17PM 28.7489 -82.9328 329° Northwest 419 482 21,000 1,140 Climbing Jacksonville Center
06:18PM 28.8553 -83.0064 328° Northwest 437 503 22,300 1,260 Climbing Jacksonville Center
06:19PM 28.9636 -83.0825 329° Northwest 450 518 23,600 1,500 Climbing Jacksonville Center
06:20PM 29.0700 -83.1564 328° Northwest 455 524 25,400 1,860 Climbing Jacksonville Center
06:21PM 29.1722 -83.2303 329° Northwest 444 511 27,400 1,260 Climbing Jacksonville Center
06:22PM 29.2764 -83.3019 329° Northwest 438 504 28,000 240 Climbing Jacksonville Center
06:23PM 29.3867 -83.3789 329° Northwest 433 498 27,900  Descending Jacksonville Center
06:24PM 29.4908 -83.4508 328° Northwest 433 498 28,000  Climbing Jacksonville Center
06:25PM 29.5928 -83.5231 330° Northwest 433 498 28,000  Level Jacksonville Center
06:26PM 29.6967 -83.5931 314° West 433 498 28,000  Level Jacksonville Center
06:27PM 29.7797 -83.6919 313° West 433 498 28,000 240 Level Jacksonville Center
06:28PM 29.8564 -83.7883 314° West 418 481 28,500 780 Climbing Jacksonville Center
06:29PM 29.9392 -83.8872 315° West 418 481 29,600 720 Climbing Jacksonville Center
06:30PM 30.0197 -83.9817 315° West 418 481 30,000 180 Climbing Jacksonville Center
06:31PM 30.1022 -84.0761 312° West 423 487 30,000 -60 Level Jacksonville Center
06:32PM 30.1828 -84.1781 314° West 423 487 29,900  Descending Jacksonville Center
06:33PM 30.2653 -84.2756 317° Northwest 423 487 30,000  Climbing Jacksonville Center
06:34PM 30.3519 -84.3706 326° Northwest 423 487 30,000  Level Jacksonville Center
06:35PM 30.4533 -84.4492 328° Northwest 428 493 30,000  Level Jacksonville Center
06:36PM 30.5547 -84.5233 329° Northwest 428 493 30,000  Level Jacksonville Center
06:37PM 30.6561 -84.5950 327° Northwest 428 493 30,000  Level Jacksonville Center
06:38PM 30.7594 -84.6719 328° Northwest 433 498 30,000  Level Jacksonville Center
06:39PM 30.8628 -84.7464 327° Northwest 433 498 30,000  Level Jacksonville Center
06:40PM 30.9658 -84.8236 329° Northwest 433 498 30,000 -60 Level Jacksonville Center
06:41PM 31.0714 -84.8983 327° Northwest 438 504 29,900  Descending Jacksonville Center
06:43PM 31.3019 -85.0742 327° Northwest 450 518 30,000  Climbing Atlanta Center
06:44PM 31.4056 -85.1531 329° Northwest 450 518 30,000  Level Atlanta Center
06:46PM 31.5239 -85.2375 328° Northwest 455 524 30,000  Level Atlanta Center
06:47PM 31.6522 -85.3319 327° Northwest 450 518 30,000  Level Atlanta Center
06:48PM 31.7558 -85.4114 329° Northwest 450 518 30,000  Level Atlanta Center
06:49PM 31.8633 -85.4889 327° Northwest 445 512 30,000  Level Atlanta Center
06:50PM 31.9667 -85.5689 328° Northwest 445 512 30,000  Level Atlanta Center
06:51PM 32.0742 -85.6492 327° Northwest 450 518 30,000  Level Atlanta Center
06:52PM 32.1775 -85.7272 324° Northwest 450 518 30,000  Level Atlanta Center
06:53PM 32.2786 -85.8150 328° Northwest 455 524 30,000  Level Atlanta Center
06:54PM 32.3881 -85.8958 326° Northwest 460 529 30,000  Level Atlanta Center
06:55PM 32.4911 -85.9794 331° Northwest 460 529 30,000  Level Atlanta Center
06:56PM 32.6067 -86.0558 335° Northwest 460 529 30,000  Level Atlanta Center
06:57PM 32.7206 -86.1203 330° Northwest 455 524 30,000  Level Atlanta Center
06:58PM 32.8339 -86.1994 342° North 463 533 30,000  Level Atlanta Center
06:59PM 32.9500 -86.2444 335° Northwest 453 521 30,000  Level Atlanta Center
07:00PM 33.0492 -86.2989 332° Northwest 446 513 30,000  Level Atlanta Center
07:01PM 33.1606 -86.3689 332° Northwest 439 505 30,000  Level Atlanta Center
07:02PM 33.2700 -86.4389 332° Northwest 444 511 30,000  Level Atlanta Center
07:03PM 33.3792 -86.5092 330° Northwest 444 511 30,000  Level Atlanta Center
07:04PM 33.4986 -86.5922 332° Northwest 449 517 30,000  Level Atlanta Center
07:05PM 33.6097 -86.6628 332° Northwest 449 517 30,000  Level Atlanta Center
07:06PM 33.7189 -86.7336 330° Northwest 449 517 30,000  Level Atlanta Center
07:07PM 33.8236 -86.8069 330° Northwest 449 517 30,000  Level Atlanta Center
07:08PM 34.0086 -86.9344 328° Northwest 456 525 30,000  Level Memphis Center
07:09PM 34.1172 -87.0153 334° Northwest 456 525 30,000  Level Memphis Center
07:10PM 34.2253 -87.0789 328° Northwest 449 517 30,000  Level Memphis Center
07:11PM 34.3192 -87.1508 333° Northwest 443 510 30,000  Level Memphis Center
07:12PM 34.4400 -87.2269 332° Northwest 451 519 30,000  Level Memphis Center
07:13PM 34.5522 -87.2983 327° Northwest 447 514 30,000  Level Memphis Center
07:14PM 34.6417 -87.3683 331° Northwest 447 514 30,000  Level Memphis Center
07:15PM 34.7603 -87.4500 330° Northwest 453 521 30,000  Level Memphis Center
07:16PM 34.8686 -87.5272 330° Northwest 448 516 30,000  Level Memphis Center
07:17PM 34.9789 -87.6047 331° Northwest 448 516 30,000  Level Memphis Center
07:18PM 35.0847 -87.6775 331° Northwest 448 516 30,000  Level Memphis Center
07:19PM 35.1947 -87.7525 331° Northwest 457 526 30,000  Level Memphis Center
07:20PM 35.2942 -87.8208 329° Northwest 457 526 30,000  Level Memphis Center
07:21PM 35.4150 -87.9114 330° Northwest 452 520 30,000  Level Memphis Center
07:22PM 35.5122 -87.9800 330° Northwest 446 513 30,000  Level Memphis Center
07:23PM 35.6200 -88.0558 331° Northwest 453 521 30,000  Level Memphis Center
07:24PM 35.7300 -88.1322 331° Northwest 453 521 30,000  Level Memphis Center
07:25PM 35.8397 -88.2061 330° Northwest 453 521 30,000  Level Memphis Center
07:28PM 36.1667 -88.4442 330° Northwest 453 521 30,000  Level Memphis Center
07:29PM 36.2764 -88.5214 329° Northwest 453 521 30,000  Level Memphis Center
07:30PM 36.3839 -88.6014 330° Northwest 453 521 30,000  Level Memphis Center
07:33PM 36.7247 -88.8503 329° Northwest 459 528 30,000  Level Memphis Center
07:34PM 36.8342 -88.9311 328° Northwest 459 528 30,000  Level Memphis Center
07:35PM 36.9414 -89.0150 329° Northwest 459 528 30,000  Level Memphis Center
07:36PM 37.0483 -89.0964 329° Northwest 459 528 30,000  Level Memphis Center
07:38PM 37.2894 -89.2769 330° Northwest 444 511 30,000  Level Kansas City Center
07:39PM 37.3972 -89.3558 328° Northwest 444 511 30,000  Level Kansas City Center
07:40PM 37.5050 -89.4400 331° Northwest 444 511 30,000  Level Kansas City Center
07:41PM 37.6125 -89.5142 335° Northwest 444 511 30,000  Level Kansas City Center
07:42PM 37.7258 -89.5800 337° Northwest 444 511 30,000  Level Kansas City Center
07:43PM 37.8408 -89.6408 338° Northwest 444 511 30,000  Level Kansas City Center
07:44PM 37.9431 -89.6922 344° North 434 499 30,000  Level Kansas City Center
07:45PM 38.0786 -89.7417 345° North 446 513 30,000  Level Kansas City Center
07:46PM 38.1867 -89.7794 344° North 453 521 30,000  Level Kansas City Center
07:47PM 38.3219 -89.8292 344° North 453 521 30,000  Level Kansas City Center
07:48PM 38.4300 -89.8700 344° North 453 521 30,000  Level Kansas City Center
07:49PM 38.5694 -89.9197 344° North 459 528 30,000  Level Kansas City Center
07:50PM 38.6836 -89.9606 345° North 473 544 30,000  Level Kansas City Center
07:51PM 38.8189 -90.0081 345° North 463 533 30,000  Level Kansas City Center
07:52PM 38.9414 -90.0511 345° North 458 527 30,000  Level Kansas City Center
07:53PM 39.0703 -90.0967 345° North 464 534 30,000  Level Kansas City Center
07:54PM 39.1822 -90.1356 344° North 464 534 30,000  Level Kansas City Center
07:55PM 39.3175 -90.1864 344° North 464 534 30,000  Level Kansas City Center
07:56PM 39.4317 -90.2278 345° North 464 534 30,000  Level Kansas City Center
07:57PM 39.5542 -90.2717 345° North 464 534 30,000  Level Kansas City Center
07:58PM 39.6892 -90.3203 345° North 464 534 30,000  Level Kansas City Center
07:59PM 39.8011 -90.3597 345° North 464 534 30,000  Level Kansas City Center
08:00PM 39.9256 -90.4039 341° North 464 534 30,000  Level Kansas City Center
08:01PM 40.0461 -90.4567 332° Northwest 459 528 30,000  Level Kansas City Center
08:02PM 40.1392 -90.5206 330° Northwest 457 526 30,000  Level Chicago Center
08:03PM 40.2508 -90.6039 330° Northwest 464 534 30,000  Level Chicago Center
08:04PM 40.3622 -90.6878 330° Northwest 464 534 30,000  Level Chicago Center
08:05PM 40.4492 -90.7550 330° Northwest 464 534 30,000  Level Chicago Center
08:06PM 40.5811 -90.8536 330° Northwest 459 528 30,000  Level Chicago Center
08:07PM 40.6886 -90.9353 331° Northwest 454 522 30,000  Level Chicago Center
08:08PM 40.8000 -91.0175 330° Northwest 454 522 30,000  Level Chicago Center
08:09PM 40.9092 -91.1000 330° Northwest 454 522 30,000  Level Chicago Center
08:10PM 41.0164 -91.1828 330° Northwest 454 522 30,000  Level Chicago Center
08:11PM 41.1275 -91.2686 330° Northwest 454 522 30,000  Level Chicago Center
08:12PM 41.2367 -91.3519 331° Northwest 454 522 30,000  Level Chicago Center
08:13PM 41.3456 -91.4325 329° Northwest 454 522 30,000  Level Chicago Center
08:14PM 41.4544 -91.5192 330° Northwest 454 522 30,000  Level Chicago Center
08:15PM 41.5633 -91.6033 330° Northwest 459 528 30,000  Level Chicago Center
08:16PM 41.6639 -91.6819 329° Northwest 459 528 30,000  Level Chicago Center
08:17PM 41.7728 -91.7694 329° Northwest 459 528 30,000  Level Chicago Center
08:18PM 41.8814 -91.8572 329° Northwest 459 528 30,000  Level Chicago Center
08:19PM 41.9919 -91.9481 330° Northwest 459 528 30,000  Level Chicago Center
08:20PM 42.1025 -92.0339 329° Northwest 459 528 30,000  Level Chicago Center
08:22PM 42.3044 -92.1967 329° Northwest 459 528 30,000  Level Minneapolis Center
08:23PM 42.4117 -92.2844 329° Northwest 453 521 30,000  Level Minneapolis Center
08:24PM 42.5164 -92.3697 327° Northwest 453 521 30,000  Level Minneapolis Center
08:25PM 42.6194 -92.4608 327° Northwest 448 516 30,000  Level Minneapolis Center
08:26PM 42.7222 -92.5522 325° Northwest 443 510 30,000  Level Minneapolis Center
08:27PM 42.8228 -92.6469 336° Northwest 443 510 30,000 -480 Level Minneapolis Center
08:28PM 42.9378 -92.7164 344° North 443 510 29,100 -1,320 Descending Minneapolis Center
08:29PM 43.0589 -92.7631 343° North 458 527 27,400 -2,160 Descending Minneapolis Center
08:30PM 43.1800 -92.8131 345° North 452 520 24,800 -2,040 Descending Minneapolis Center
08:31PM 43.2967 -92.8575 345° North 446 513 23,300 -1,800 Descending Minneapolis Center
08:32PM 43.4094 -92.8992 343° North 433 498 21,200 -2,280 Descending Minneapolis Center
08:33PM 43.5158 -92.9439 345° North 415 478 18,800 -2,280 Descending Minneapolis Center
08:34PM 43.6200 -92.9831 344° North 398 458 16,700 -2,160 Descending Minneapolis Center
08:35PM 43.7139 -93.0197 346° North 393 452 14,500 -2,460 Descending Minneapolis Center
08:36PM 43.8286 -93.0592 344° North 382 440 11,800 -2,040 Descending Minneapolis Center
08:37PM 43.9267 -93.0989 348° North 377 434 10,500 -1,140 Descending Minneapolis Center
08:38PM 43.9739 -93.1128 342° North 359 413 10,100 -540 Descending FAA TRACON SMA TRACON (SMA)
08:38PM 44.0333 -93.1389 344° North 323 372 9,900 -120 Descending FAA TRACON SMA TRACON (SMA)
08:39PM 44.0892 -93.1606 345° North 300 345 10,000 60 Climbing FAA TRACON SMA TRACON (SMA)
08:40PM 44.1383 -93.1794 344° North 298 343 10,000  Level FAA TRACON SMA TRACON (SMA)
08:40PM 44.1933 -93.2008 360° North 298 343 10,000  Level FAA TRACON SMA TRACON (SMA)
08:41PM 44.2508 -93.2006 359° North 298 343 10,000  Level FAA TRACON SMA TRACON (SMA)
08:42PM 44.2992 -93.2017 North 281 323 10,000 -120 Level FAA TRACON SMA TRACON (SMA)
08:42PM 44.3528 -93.2008 North 278 320 9,900 -1,140 Descending FAA TRACON SMA TRACON (SMA)
08:43PM 44.4044 -93.1994 North 267 307 8,500 -1,860 Descending FAA TRACON SMA TRACON (SMA)
08:44PM 44.4492 -93.1975 360° North 260 299 7,400 -1,140 Descending FAA TRACON SMA TRACON (SMA)
08:44PM 44.4958 -93.1975 360° North 240 276 7,000 -360 Descending FAA TRACON SMA TRACON (SMA)
08:45PM 44.5422 -93.1969 North 241 277 7,000 -420 Level FAA TRACON SMA TRACON (SMA)
08:46PM 44.5839 -93.1964 360° North 242 278 6,500 -1,200 Descending FAA TRACON SMA TRACON (SMA)
08:46PM 44.6264 -93.1964 359° North 216 249 5,400 -1,800 Descending FAA TRACON SMA TRACON (SMA)
08:47PM 44.6675 -93.1969 North 214 246 4,100 -1,140 Descending FAA TRACON SMA TRACON (SMA)
08:48PM 44.7036 -93.1964 352° North 211 243 3,900 -720 Descending FAA TRACON SMA TRACON (SMA)
08:48PM 44.7425 -93.2039 349° North 203 234 3,200 -1,020 Descending FAA TRACON SMA TRACON (SMA)
08:49PM 44.7764 -93.2131 350° North 175 201 2,600 -840 Descending FAA TRACON SMA TRACON (SMA)
08:50PM 44.8019 -93.2197 349° North 150 173 2,100 -780 Descending FAA TRACON SMA TRACON (SMA)
08:50PM 44.8292 -93.2269 349° North 145 167 1,600 -780 Descending FAA TRACON SMA TRACON (SMA)
08:51PM 44.8564 -93.2342 349° North 144 166 1,100 -780 Descending FAA TRACON SMA TRACON (SMA)